createdAt,value
2022-09-24T00:02:24.200Z,98396.66
2022-09-24T00:04:52.626Z,98396.66
2022-09-24T00:07:21.140Z,98400.16
2022-09-24T00:09:49.593Z,98395.81
2022-09-24T00:12:18.971Z,98392.09
2022-09-24T00:14:48.931Z,98393.97
2022-09-24T00:17:17.306Z,98390.44
2022-09-24T00:19:45.771Z,98397.47
2022-09-24T00:22:14.248Z,98393.13
2022-09-24T00:25:00.279Z,98386.09
2022-09-24T00:27:29.251Z,98383.38
2022-09-24T00:29:59.407Z,98385.88
2022-09-24T00:32:27.951Z,98379.66
2022-09-24T00:34:56.406Z,98371.59
2022-09-24T00:37:24.884Z,98374.28
2022-09-24T00:39:53.485Z,98367.25
2022-09-24T00:42:22.904Z,98364.56
2022-09-24T00:44:56.254Z,98358.31
2022-09-24T00:47:35.707Z,98355.63
2022-09-24T00:50:19.369Z,98361.00
2022-09-24T00:52:52.763Z,98359.34
2022-09-24T00:55:21.530Z,98351.09
2022-09-24T00:57:50.389Z,98349.41
2022-09-24T01:00:19.299Z,98352.09
2022-09-24T01:02:49.921Z,98352.09
2022-09-24T01:05:19.624Z,98348.56
2022-09-24T01:07:49.036Z,98339.66
2022-09-24T01:10:38.235Z,98335.94
2022-09-24T01:13:15.030Z,98349.41
2022-09-24T01:15:46.207Z,98333.25
2022-09-24T01:18:19.346Z,98332.41
2022-09-24T01:21:11.114Z,98327.88
2022-09-24T01:24:27.783Z,98325.38
2022-09-24T01:27:07.978Z,98326.22
2022-09-24T01:29:59.594Z,98320.00
2022-09-24T01:32:33.425Z,98315.44
2022-09-24T01:35:05.025Z,98303.84
2022-09-24T01:37:35.271Z,98309.22
2022-09-24T01:40:04.553Z,98306.53
2022-09-24T01:42:35.340Z,98309.22
2022-09-24T01:45:06.518Z,98307.38
2022-09-24T01:47:39.920Z,98305.69
2022-09-24T01:50:10.007Z,98304.69
2022-09-24T01:52:44.173Z,98303.84
2022-09-24T01:55:15.075Z,98302.97
2022-09-24T01:57:45.088Z,98304.69
2022-09-24T02:00:16.503Z,98308.38
2022-09-24T02:02:47.709Z,98306.53
2022-09-24T02:05:21.207Z,98308.38
2022-09-24T02:07:54.143Z,98309.41
2022-09-24T02:10:22.644Z,98305.69
2022-09-24T02:12:54.004Z,98308.38
2022-09-24T02:15:31.419Z,98302.97
2022-09-24T02:18:04.645Z,98306.72
2022-09-24T02:20:33.289Z,98304.84
2022-09-24T02:23:01.724Z,98315.63
2022-09-24T02:25:32.561Z,98299.66
2022-09-24T02:28:00.939Z,98303.19
2022-09-24T02:30:31.286Z,98301.31
2022-09-24T02:32:59.751Z,98305.88
2022-09-24T02:35:27.348Z,98296.13
2022-09-24T02:37:55.754Z,98297.97
2022-09-24T02:40:24.743Z,98300.28
2022-09-24T02:42:53.294Z,98298.81
2022-09-24T02:45:21.875Z,98297.97
2022-09-24T02:47:52.293Z,98298.81
2022-09-24T02:50:20.962Z,98298.81
2022-09-24T02:52:49.446Z,98296.13
2022-09-24T02:55:18.225Z,98287.22
2022-09-24T02:57:47.645Z,98303.34
2022-09-24T03:00:17.836Z,98299.00
2022-09-24T03:02:47.953Z,98292.59
2022-09-24T03:05:18.624Z,98300.66
2022-09-24T03:07:47.089Z,98295.28
2022-09-24T03:10:15.888Z,98292.59
2022-09-24T03:12:44.385Z,98287.22
2022-09-24T03:15:12.902Z,98289.06
2022-09-24T03:17:41.486Z,98285.56
2022-09-24T03:20:10.400Z,98293.63
2022-09-24T03:22:40.180Z,98290.94
2022-09-24T03:25:11.192Z,98285.56
2022-09-24T03:27:39.670Z,98291.75
2022-09-24T03:30:27.487Z,98287.41
2022-09-24T03:32:55.904Z,98283.88
2022-09-24T03:35:24.478Z,98286.59
2022-09-24T03:37:54.395Z,98278.50
2022-09-24T03:40:23.017Z,98282.84
2022-09-24T03:42:51.645Z,98286.38
2022-09-24T03:45:20.127Z,98285.56
2022-09-24T03:47:48.908Z,98285.56
2022-09-24T03:50:18.049Z,98281.19
2022-09-24T03:52:46.595Z,98277.66
2022-09-24T03:55:16.622Z,98278.50
2022-09-24T03:57:45.094Z,98283.88
2022-09-24T04:00:14.589Z,98282.19
2022-09-24T04:02:43.370Z,98290.09
2022-09-24T04:05:11.875Z,98286.59
2022-09-24T04:07:40.475Z,98292.13
2022-09-24T04:10:10.142Z,98295.66
2022-09-24T04:12:40.044Z,98291.31
2022-09-24T04:15:09.654Z,98286.75
2022-09-24T04:17:38.182Z,98286.75
2022-09-24T04:20:09.109Z,98284.88
2022-09-24T04:22:37.619Z,98280.53
2022-09-24T04:25:11.390Z,98282.03
2022-09-24T04:27:44.069Z,98276.66
2022-09-24T04:30:14.261Z,98279.34
2022-09-24T04:32:43.071Z,98273.97
2022-09-24T04:35:11.670Z,98273.13
2022-09-24T04:37:40.193Z,98272.25
2022-09-24T04:40:10.414Z,98260.69
2022-09-24T04:42:38.997Z,98262.38
2022-09-24T04:45:10.618Z,98264.19
2022-09-24T04:47:40.619Z,98260.69
2022-09-24T04:50:11.444Z,98263.38
2022-09-24T04:52:40.104Z,98250.75
2022-09-24T04:55:10.132Z,98249.91
2022-09-24T04:57:38.564Z,98249.91
2022-09-24T05:00:10.732Z,98258.81
2022-09-24T05:02:39.299Z,98260.69
2022-09-24T05:05:08.774Z,98260.69
2022-09-24T05:07:37.566Z,98259.84
2022-09-24T05:10:07.629Z,98261.50
2022-09-24T05:12:36.583Z,98255.28
2022-09-24T05:15:06.280Z,98255.28
2022-09-24T05:17:39.426Z,98251.59
2022-09-24T05:20:10.777Z,98247.22
2022-09-24T05:22:42.914Z,98254.28
2022-09-24T05:25:12.488Z,98251.59
2022-09-24T05:27:44.944Z,98251.41
2022-09-24T05:30:14.316Z,98245.19
2022-09-24T05:32:44.225Z,98245.19
2022-09-24T05:35:13.885Z,98252.22
2022-09-24T05:37:42.674Z,98253.06
2022-09-24T05:40:29.489Z,98254.91
2022-09-24T05:43:02.229Z,98252.22
2022-09-24T05:45:30.667Z,98247.66
2022-09-24T05:48:01.002Z,98256.78
2022-09-24T05:50:29.481Z,98254.91
2022-09-24T05:52:57.923Z,98255.75
2022-09-24T05:55:30.168Z,98258.44
2022-09-24T05:58:05.430Z,98255.75
2022-09-24T06:00:34.252Z,98254.09
2022-09-24T06:03:09.027Z,98256.78
2022-09-24T06:05:37.677Z,98264.03
2022-09-24T06:08:06.249Z,98260.31
2022-09-24T06:10:34.664Z,98260.31
2022-09-24T06:13:03.814Z,98266.72
2022-09-24T06:15:32.389Z,98264.84
2022-09-24T06:18:00.895Z,98260.31
2022-09-24T06:20:30.799Z,98255.94
2022-09-24T06:22:59.278Z,98271.06
2022-09-24T06:25:27.764Z,98258.63
2022-09-24T06:28:00.781Z,98268.38
2022-09-24T06:30:29.993Z,98265.69
2022-09-24T06:33:05.477Z,98268.38
2022-09-24T06:35:36.976Z,98277.28
2022-09-24T06:38:05.788Z,98267.38
2022-09-24T06:40:37.314Z,98271.91
2022-09-24T06:43:06.770Z,98270.06
2022-09-24T06:45:35.803Z,98271.91
2022-09-24T06:48:05.584Z,98267.38
2022-09-24T06:50:36.246Z,98273.59
2022-09-24T06:53:06.718Z,98272.75
2022-09-24T06:55:36.055Z,98274.41
2022-09-24T06:58:06.147Z,98272.56
2022-09-24T07:00:35.023Z,98268.19
2022-09-24T07:03:03.565Z,98275.44
2022-09-24T07:05:32.037Z,98266.50
2022-09-24T07:08:01.933Z,98273.59
2022-09-24T07:10:31.442Z,98262.00
2022-09-24T07:12:59.900Z,98268.88
2022-09-24T07:15:28.674Z,98272.00
2022-09-24T07:17:57.421Z,98273.88
2022-09-24T07:20:28.354Z,98277.38
2022-09-24T07:22:56.920Z,98272.19
2022-09-24T07:25:26.971Z,98272.38
2022-09-24T07:27:55.993Z,98277.94
2022-09-24T07:30:24.474Z,98280.63
2022-09-24T07:32:56.823Z,98281.81
2022-09-24T07:35:25.371Z,98283.53
2022-09-24T07:38:01.051Z,98289.91
2022-09-24T07:40:31.531Z,98300.03
2022-09-24T07:43:00.190Z,98289.28
2022-09-24T07:45:29.833Z,98297.16
2022-09-24T07:47:59.970Z,98295.28
2022-09-24T07:50:29.033Z,98296.97
2022-09-24T07:52:57.546Z,98297.59
2022-09-24T07:55:26.103Z,98290.19
2022-09-24T07:57:57.919Z,98297.25
2022-09-24T08:00:26.538Z,98292.72
2022-09-24T08:02:56.595Z,98295.41
2022-09-24T08:05:25.536Z,98298.91
2022-09-24T08:07:54.159Z,98296.59
2022-09-24T08:10:23.187Z,98292.50
2022-09-24T08:12:51.654Z,98302.28
2022-09-24T08:15:22.916Z,98301.25
2022-09-24T08:17:51.802Z,98295.03
2022-09-24T08:20:22.179Z,98296.53
2022-09-24T08:22:50.664Z,98292.13
2022-09-24T08:25:19.160Z,98288.44
2022-09-24T08:27:47.731Z,98287.63
2022-09-24T08:30:16.465Z,98296.31
2022-09-24T08:32:49.329Z,98296.31
2022-09-24T08:35:17.887Z,98299.88
2022-09-24T08:37:46.545Z,98297.53
2022-09-24T08:40:17.387Z,98291.13
2022-09-24T08:42:49.835Z,98294.47
2022-09-24T08:45:36.446Z,98297.19
2022-09-24T08:48:11.568Z,98301.53
2022-09-24T08:50:40.930Z,98296.97
2022-09-24T08:53:15.965Z,98287.25
2022-09-24T08:55:46.671Z,98293.44
2022-09-24T08:58:32.979Z,98287.41
2022-09-24T09:01:08.655Z,98290.31
2022-09-24T09:03:42.710Z,98288.06
2022-09-24T09:06:14.266Z,98282.50
2022-09-24T09:09:05.891Z,98286.22
2022-09-24T09:11:37.099Z,98279.81
2022-09-24T09:14:08.861Z,98278.97
2022-09-24T09:16:44.278Z,98277.13
2022-09-24T09:19:15.699Z,98269.88
2022-09-24T09:21:46.945Z,98268.19
2022-09-24T09:24:19.241Z,98261.16
2022-09-24T09:26:49.751Z,98252.03
2022-09-24T09:29:18.141Z,98249.34
2022-09-24T09:31:56.518Z,98256.41
2022-09-24T09:34:38.960Z,98247.31
2022-09-24T09:37:15.246Z,98244.63
2022-09-24T09:39:49.645Z,98243.78
2022-09-24T09:42:28.343Z,98243.63
2022-09-24T09:44:57.169Z,98243.41
2022-09-24T09:47:36.200Z,98246.31
2022-09-24T09:50:12.439Z,98243.78
2022-09-24T09:52:41.022Z,98247.50
2022-09-24T09:55:20.405Z,98238.59
2022-09-24T09:57:48.918Z,98243.97
2022-09-24T10:00:27.872Z,98232.38
2022-09-24T10:02:56.513Z,98242.13
2022-09-24T10:05:28.972Z,98239.25
2022-09-24T10:07:58.257Z,98232.84
2022-09-24T10:10:27.558Z,98249.84
2022-09-24T10:12:56.537Z,98237.19
2022-09-24T10:15:25.904Z,98240.53
2022-09-24T10:17:55.350Z,98243.25
2022-09-24T10:20:28.398Z,98248.63
2022-09-24T10:22:58.153Z,98244.06
2022-09-24T10:25:28.213Z,98239.50
2022-09-24T10:28:20.402Z,98236.00
2022-09-24T10:30:54.157Z,98244.25
2022-09-24T10:33:22.754Z,98233.31
2022-09-24T10:35:52.565Z,98235.16
2022-09-24T10:38:25.072Z,98240.34
2022-09-24T10:40:53.598Z,98232.47
2022-09-24T10:43:23.282Z,98223.38
2022-09-24T10:46:21.862Z,98228.91
2022-09-24T10:48:53.289Z,98217.97
2022-09-24T10:51:30.041Z,98232.09
2022-09-24T10:54:16.319Z,98226.88
2022-09-24T10:56:46.842Z,98226.88
2022-09-24T10:59:32.279Z,98215.94
2022-09-24T11:02:18.996Z,98222.16
2022-09-24T11:04:52.009Z,98222.09
2022-09-24T11:07:44.290Z,98222.72
2022-09-24T11:10:23.910Z,98218.56
2022-09-24T11:13:02.783Z,98212.03
2022-09-24T11:15:48.518Z,98213.34
2022-09-24T11:18:29.692Z,98211.31
2022-09-24T11:21:02.502Z,98208.25
2022-09-24T11:23:48.005Z,98203.88
2022-09-24T11:26:24.615Z,98200.16
2022-09-24T11:29:13.314Z,98198.47
2022-09-24T11:31:45.179Z,98209.34
2022-09-24T11:34:27.428Z,98208.69
2022-09-24T11:37:18.504Z,98204.53
2022-09-24T11:40:00.478Z,98205.56
2022-09-24T11:42:31.444Z,98189.41
2022-09-24T11:45:38.096Z,98196.44
2022-09-24T11:48:22.762Z,98195.63
2022-09-24T11:51:01.115Z,98193.56
2022-09-24T11:53:35.864Z,98200.78
2022-09-24T11:56:12.956Z,98200.16
2022-09-24T11:58:45.053Z,98195.22
2022-09-24T12:01:16.499Z,98199.78
2022-09-24T12:03:48.562Z,98201.28
2022-09-24T12:06:19.134Z,98191.06
2022-09-24T12:08:52.375Z,98187.72
2022-09-24T12:11:28.241Z,98191.59
2022-09-24T12:13:58.249Z,98196.81
2022-09-24T12:16:28.701Z,98188.75
2022-09-24T12:19:00.013Z,98188.75
2022-09-24T12:21:32.119Z,98186.06
2022-09-24T12:24:05.171Z,98182.72
2022-09-24T12:26:38.564Z,98183.38
2022-09-24T12:29:54.353Z,98170.94
2022-09-24T12:32:44.246Z,98177.31
2022-09-24T12:35:20.410Z,98168.41
2022-09-24T12:37:50.398Z,98158.47
2022-09-24T12:40:36.785Z,98161.16
2022-09-24T12:43:24.498Z,98165.72
2022-09-24T12:45:57.336Z,98168.41
2022-09-24T12:48:25.980Z,98169.44
2022-09-24T12:50:59.325Z,98166.75
2022-09-24T12:53:34.783Z,98160.34
2022-09-24T12:56:04.446Z,98154.50
2022-09-24T12:58:39.628Z,98159.25
2022-09-24T13:01:13.927Z,98151.63
2022-09-24T13:03:46.927Z,98149.75
2022-09-24T13:06:31.158Z,98145.22
2022-09-24T13:08:59.567Z,98144.38
2022-09-24T13:11:33.605Z,98142.53
2022-09-24T13:14:09.750Z,98142.53
2022-09-24T13:16:41.308Z,98126.19
2022-09-24T13:19:26.239Z,98121.81
2022-09-24T13:21:56.264Z,98121.81
2022-09-24T13:24:30.351Z,98104.00
2022-09-24T13:27:11.657Z,98115.41
2022-09-24T13:29:41.982Z,98107.34
2022-09-24T13:32:10.458Z,98118.75
2022-09-24T13:34:38.919Z,98116.06
2022-09-24T13:37:15.384Z,98113.16
2022-09-24T13:39:46.062Z,98106.50
2022-09-24T13:42:19.548Z,98114.41
2022-09-24T13:44:51.280Z,98110.69
2022-09-24T13:47:31.165Z,98114.56
2022-09-24T13:50:10.463Z,98108.38
2022-09-24T13:52:42.841Z,98101.94
2022-09-24T13:55:18.214Z,98100.28
2022-09-24T13:57:47.858Z,98104.63
2022-09-24T14:00:20.904Z,98101.13
2022-09-24T14:03:02.508Z,98099.25
2022-09-24T14:05:31.852Z,98098.44
2022-09-24T14:08:04.700Z,98097.59
2022-09-24T14:10:33.570Z,98094.91
2022-09-24T14:13:19.361Z,98089.53
2022-09-24T14:15:57.378Z,98080.41
2022-09-24T14:18:26.790Z,98087.84
2022-09-24T14:20:57.908Z,98079.59
2022-09-24T14:23:28.345Z,98088.69
2022-09-24T14:25:56.798Z,98084.97
2022-09-24T14:28:25.318Z,98087.66
2022-09-24T14:30:56.825Z,98085.81
2022-09-24T14:33:27.490Z,98081.44
2022-09-24T14:35:57.041Z,98090.53
2022-09-24T14:38:26.844Z,98077.06
2022-09-24T14:40:57.128Z,98089.91
2022-09-24T14:43:31.607Z,98085.16
2022-09-24T14:46:07.131Z,98078.09
2022-09-24T14:48:35.966Z,98076.06
2022-09-24T14:51:04.512Z,98075.25
2022-09-24T14:53:34.741Z,98082.47
2022-09-24T14:56:19.037Z,98077.06
2022-09-24T14:58:47.600Z,98084.16
2022-09-24T15:01:36.491Z,98090.53
2022-09-24T15:04:26.187Z,98082.47
2022-09-24T15:07:18.774Z,98081.63
2022-09-24T15:10:08.468Z,98084.31
2022-09-24T15:12:57.300Z,98081.84
2022-09-24T15:15:46.369Z,98075.81
2022-09-24T15:18:36.710Z,98076.44
2022-09-24T15:21:25.459Z,98081.84
2022-09-24T15:24:14.177Z,98078.28
2022-09-24T15:27:04.202Z,98073.94
2022-09-24T15:29:54.583Z,98075.81
2022-09-24T15:32:44.407Z,98081.19
2022-09-24T15:35:34.923Z,98077.00
2022-09-24T15:38:23.695Z,98076.81
2022-09-24T15:41:12.551Z,98090.25
2022-09-24T15:44:01.886Z,98087.56
2022-09-24T15:46:53.238Z,98083.22
2022-09-24T16:50:30.205Z,98086.78
2022-09-24T16:53:19.112Z,98093.44
2022-09-24T16:56:08.864Z,98101.91
2022-09-24T16:58:58.147Z,98101.91
2022-09-24T17:01:47.025Z,98094.66
2022-09-24T17:04:36.146Z,98090.97
2022-09-24T17:07:05.917Z,98085.19
2022-09-24T17:09:51.936Z,98091.41
2022-09-24T17:12:20.357Z,98086.84
2022-09-24T17:14:48.891Z,98090.38
2022-09-24T17:17:17.411Z,98093.94
2022-09-24T17:19:45.850Z,98091.03
2022-09-24T17:22:34.758Z,98093.72
2022-09-24T17:25:03.469Z,98091.25
2022-09-24T17:27:32.161Z,98095.97
2022-09-24T17:30:00.667Z,98093.06
2022-09-24T17:32:31.855Z,98085.84
2022-09-24T17:35:00.259Z,98091.03
2022-09-24T17:37:28.895Z,98088.16
2022-09-24T17:39:58.832Z,98095.41
2022-09-24T17:42:27.329Z,98084.81
2022-09-24T17:44:55.916Z,98086.94
2022-09-24T17:47:44.305Z,98085.47
2022-09-24T17:50:12.810Z,98091.69
2022-09-24T17:52:41.227Z,98093.53
2022-09-24T17:55:11.330Z,98084.63
2022-09-24T17:57:39.727Z,98089.00
2022-09-24T18:00:10.378Z,98090.03
2022-09-24T18:02:39.200Z,98093.34
2022-09-24T18:05:10.929Z,98096.03
2022-09-24T18:07:39.349Z,98092.34
2022-09-24T18:10:10.301Z,98085.91
2022-09-24T18:12:38.704Z,98093.44
2022-09-24T18:15:10.203Z,98100.84
2022-09-24T18:17:38.663Z,98089.63
2022-09-24T18:20:08.578Z,98093.16
2022-09-24T18:22:37.012Z,98098.53
2022-09-24T18:25:06.400Z,98096.28
2022-09-24T18:27:38.054Z,98098.34
2022-09-24T18:30:09.157Z,98097.72
2022-09-24T18:32:40.133Z,98096.03
2022-09-24T18:35:11.689Z,98095.19
2022-09-24T18:37:40.127Z,98094.19
2022-09-24T18:40:12.309Z,98095.19
2022-09-24T18:42:42.139Z,98104.09
2022-09-24T18:45:11.803Z,98112.19
2022-09-24T18:47:40.270Z,98108.47
2022-09-24T18:50:10.251Z,98109.31
2022-09-24T18:52:38.685Z,98111.16
2022-09-24T18:55:10.399Z,98103.94
2022-09-24T18:57:38.884Z,98108.47
2022-09-24T19:00:31.434Z,98108.47
2022-09-24T19:03:00.304Z,98114.69
2022-09-24T19:05:29.753Z,98110.97
2022-09-24T19:07:59.194Z,98118.03
2022-09-24T19:10:27.739Z,98113.47
2022-09-24T19:12:56.930Z,98110.13
2022-09-24T19:15:26.773Z,98119.25
2022-09-24T19:17:55.334Z,98117.00
2022-09-24T19:20:23.699Z,98114.31
2022-09-24T19:22:59.990Z,98113.66
2022-09-24T19:25:28.754Z,98116.34
2022-09-24T19:27:58.041Z,98117.19
2022-09-24T19:30:28.688Z,98108.47
2022-09-24T19:32:57.728Z,98106.78
2022-09-24T19:35:26.941Z,98110.53
2022-09-24T19:37:55.436Z,98108.00
2022-09-24T19:40:24.019Z,98105.13
2022-09-24T19:42:52.829Z,98105.13
2022-09-24T19:45:21.310Z,98106.34
2022-09-24T19:47:52.052Z,98106.78
2022-09-24T19:50:20.533Z,98114.03
2022-09-24T19:52:48.947Z,98111.34
2022-09-24T19:55:17.717Z,98115.91
2022-09-24T19:57:46.104Z,98107.19
2022-09-24T20:00:15.652Z,98107.19
2022-09-24T20:02:46.716Z,98107.19
2022-09-24T20:05:16.604Z,98109.88
2022-09-24T20:07:45.892Z,98106.34
2022-09-24T20:10:14.708Z,98109.88
2022-09-24T20:12:46.737Z,98107.19
2022-09-24T20:15:15.409Z,98100.13
2022-09-24T20:17:43.801Z,98107.19
2022-09-24T20:20:12.406Z,98106.53
2022-09-24T20:22:42.359Z,98107.19
2022-09-24T20:25:12.993Z,98099.09
2022-09-24T20:27:52.420Z,98104.47
2022-09-24T20:30:21.750Z,98106.34
2022-09-24T20:32:50.618Z,98102.81
2022-09-24T20:35:19.218Z,98105.53
2022-09-24T20:37:49.466Z,98101.78
2022-09-24T20:40:18.158Z,98104.47
2022-09-24T20:42:46.761Z,98105.53
2022-09-24T20:45:16.346Z,98110.06
2022-09-24T20:47:44.796Z,98100.13
2022-09-24T20:50:13.387Z,98110.06
2022-09-24T20:52:41.903Z,98106.53
2022-09-24T20:55:12.625Z,98104.69
2022-09-24T20:57:42.383Z,98118.16
2022-09-24T21:00:15.078Z,98110.91
2022-09-24T21:02:44.584Z,98112.75
2022-09-24T21:05:13.169Z,98111.91
2022-09-24T21:07:42.835Z,98112.13
2022-09-24T21:10:13.530Z,98112.94
2022-09-24T21:12:43.630Z,98116.47
2022-09-24T21:15:13.888Z,98108.22
2022-09-24T21:17:59.388Z,98104.69
2022-09-24T21:20:33.252Z,98098.44
2022-09-24T21:23:01.723Z,98105.31
2022-09-24T21:25:53.299Z,98101.78
2022-09-24T21:28:22.867Z,98104.31
2022-09-24T21:30:59.898Z,98106.34
2022-09-24T21:33:28.407Z,98104.69
2022-09-24T21:35:58.722Z,98101.16
2022-09-24T21:38:27.222Z,98101.16
2022-09-24T21:40:57.428Z,98096.78
2022-09-24T21:43:29.742Z,98098.44
2022-09-24T21:46:02.021Z,98098.66
2022-09-24T21:48:31.408Z,98095.97
2022-09-24T21:51:04.543Z,98098.44
2022-09-24T21:53:33.559Z,98094.28
2022-09-24T21:56:03.782Z,98095.13
2022-09-24T21:58:32.566Z,98094.28
2022-09-24T22:01:04.751Z,98089.75
2022-09-24T22:03:33.847Z,98090.75
2022-09-24T22:06:04.132Z,98083.50
2022-09-24T22:08:32.742Z,98088.06
2022-09-24T22:11:04.461Z,98084.38
2022-09-24T22:13:33.729Z,98088.91
2022-09-24T22:16:02.685Z,98096.97
2022-09-24T22:18:31.412Z,98088.06
2022-09-24T22:20:59.844Z,98091.59
2022-09-24T22:23:28.356Z,98089.94
2022-09-24T22:25:57.174Z,98095.13
2022-09-24T22:28:27.447Z,98086.03
2022-09-24T22:30:57.864Z,98092.25
2022-09-24T22:33:44.102Z,98089.75
2022-09-24T22:36:12.668Z,98084.38
2022-09-24T22:38:41.096Z,98089.38
2022-09-24T22:41:11.187Z,98091.41
2022-09-24T22:43:40.958Z,98081.84
2022-09-24T22:46:11.306Z,98086.41
2022-09-24T22:48:40.024Z,98085.75
2022-09-24T22:51:09.994Z,98090.13
2022-09-24T22:53:39.844Z,98093.81
2022-09-24T22:56:10.143Z,98088.44
2022-09-24T22:58:45.075Z,98094.88
2022-09-24T23:01:15.502Z,98090.31
2022-09-24T23:03:44.376Z,98091.34
2022-09-24T23:06:13.079Z,98091.34
2022-09-24T23:08:42.794Z,98090.50
2022-09-24T23:11:12.283Z,98094.88
2022-09-24T23:13:43.107Z,98092.19
2022-09-24T23:16:12.911Z,98086.78
2022-09-24T23:18:42.040Z,98079.72
2022-09-24T23:21:12.466Z,98085.09
2022-09-24T23:23:40.974Z,98080.94
2022-09-24T23:26:16.178Z,98088.84
2022-09-24T23:28:53.037Z,98082.63
2022-09-24T23:31:22.869Z,98087.16
2022-09-24T23:33:51.399Z,98089.00
2022-09-24T23:36:19.946Z,98081.78
2022-09-24T23:38:48.381Z,98081.97
2022-09-24T23:41:16.896Z,98082.78
2022-09-24T23:43:45.868Z,98089.22
2022-09-24T23:46:15.998Z,98085.69
2022-09-24T23:48:44.665Z,98088.38
2022-09-24T23:51:13.119Z,98080.31
2022-09-24T23:53:41.835Z,98077.63
2022-09-24T23:56:10.620Z,98082.13
2022-09-24T23:58:39.546Z,98082.78
